createdAt,value
2018-02-21T00:01:28.273Z,33.60
2018-02-21T00:02:28.196Z,32.80
2018-02-21T00:04:21.464Z,33.00
2018-02-21T00:05:21.368Z,32.80
2018-02-21T00:07:14.748Z,33.20
2018-02-21T00:08:14.538Z,32.70
2018-02-21T00:10:07.778Z,33.50
2018-02-21T00:11:07.707Z,34.60
2018-02-21T00:13:00.969Z,32.40
2018-02-21T00:14:00.874Z,33.70
2018-02-21T00:15:54.120Z,32.90
2018-02-21T00:16:54.047Z,34.10
2018-02-21T00:18:47.302Z,35.30
2018-02-21T00:19:47.207Z,34.20
2018-02-21T00:21:40.456Z,34.30
2018-02-21T00:22:40.377Z,34.40
2018-02-21T00:24:33.642Z,33.80
2018-02-21T00:25:33.547Z,33.90
2018-02-21T00:27:26.815Z,35.00
2018-02-21T00:28:26.718Z,34.10
2018-02-21T00:30:20.078Z,33.60
2018-02-21T00:31:19.879Z,35.20
2018-02-21T00:33:13.150Z,34.50
2018-02-21T00:34:13.061Z,35.10
2018-02-21T00:36:06.411Z,34.60
2018-02-21T00:37:06.338Z,34.40
2018-02-21T00:38:59.598Z,33.00
2018-02-21T00:39:59.506Z,33.90
2018-02-21T00:41:52.753Z,33.40
2018-02-21T00:42:52.678Z,35.20
2018-02-21T00:44:45.933Z,35.30
2018-02-21T00:45:45.838Z,36.10
2018-02-21T00:47:39.106Z,35.10
2018-02-21T00:48:39.012Z,34.50
2018-02-21T00:50:32.368Z,35.70
2018-02-21T00:51:32.174Z,34.40
2018-02-21T00:53:25.443Z,34.90
2018-02-21T00:54:25.344Z,35.20
2018-02-21T00:56:18.706Z,34.60
2018-02-21T00:57:18.516Z,35.10
2018-02-21T00:59:11.786Z,35.30
2018-02-21T01:00:11.687Z,34.90
2018-02-21T01:02:04.932Z,36.20
2018-02-21T01:03:04.857Z,36.10
2018-02-21T01:04:58.122Z,35.50
2018-02-21T01:05:58.030Z,35.60
2018-02-21T01:07:51.295Z,35.50
2018-02-21T01:08:51.202Z,35.50
2018-02-21T01:10:44.438Z,36.70
2018-02-21T01:11:44.357Z,37.20
2018-02-21T01:13:37.628Z,36.80
2018-02-21T01:14:37.539Z,35.60
2018-02-21T01:16:30.783Z,35.60
2018-02-21T01:17:30.711Z,35.90
2018-02-21T01:19:23.973Z,35.90
2018-02-21T01:20:23.874Z,35.60
2018-02-21T01:22:17.124Z,35.40
2018-02-21T01:23:17.049Z,35.80
2018-02-21T01:25:10.314Z,37.00
2018-02-21T01:26:10.220Z,36.20
2018-02-21T01:28:03.492Z,37.30
2018-02-21T01:29:03.394Z,37.10
2018-02-21T01:30:56.639Z,36.60
2018-02-21T01:31:56.564Z,36.60
2018-02-21T01:33:49.834Z,36.10
2018-02-21T01:34:49.734Z,36.50
2018-02-21T01:36:42.981Z,37.30
2018-02-21T01:37:42.905Z,36.70
2018-02-21T01:39:36.170Z,35.00
2018-02-21T01:40:36.075Z,36.20
2018-02-21T01:42:29.397Z,35.70
2018-02-21T01:43:29.328Z,37.40
2018-02-21T01:45:22.595Z,37.50
2018-02-21T01:46:22.499Z,35.90
2018-02-21T01:48:15.763Z,36.40
2018-02-21T01:49:15.667Z,36.80
2018-02-21T01:51:08.920Z,38.40
2018-02-21T01:52:08.838Z,37.30
2018-02-21T01:54:02.216Z,37.50
2018-02-21T01:55:02.008Z,37.20
2018-02-21T01:56:55.375Z,36.70
2018-02-21T01:57:55.164Z,36.00
2018-02-21T01:59:48.547Z,37.70
2018-02-21T02:00:48.332Z,37.80
2018-02-21T02:02:41.587Z,37.20
2018-02-21T02:03:41.513Z,36.40
2018-02-21T02:05:34.777Z,37.90
2018-02-21T02:06:34.688Z,38.00
2018-02-21T02:08:27.947Z,36.40
2018-02-21T02:09:27.860Z,37.40
2018-02-21T02:11:21.099Z,36.80
2018-02-21T02:12:21.024Z,36.50
2018-02-21T02:14:14.289Z,36.30
2018-02-21T02:15:14.196Z,37.30
2018-02-21T02:17:07.441Z,37.50
2018-02-21T02:18:07.365Z,37.00
2018-02-21T02:20:00.624Z,39.20
2018-02-21T02:21:00.528Z,38.40
2018-02-21T02:22:53.782Z,37.70
2018-02-21T02:23:53.703Z,38.20
2018-02-21T02:25:46.969Z,35.70
2018-02-21T02:26:46.876Z,36.80
2018-02-21T02:28:40.134Z,37.40
2018-02-21T02:29:40.047Z,36.70
2018-02-21T02:31:33.404Z,38.40
2018-02-21T02:32:33.327Z,38.00
2018-02-21T02:34:26.593Z,36.90
2018-02-21T02:35:26.499Z,37.80
2018-02-21T02:37:19.743Z,37.00
2018-02-21T02:38:19.672Z,38.20
2018-02-21T02:40:12.925Z,36.90
2018-02-21T02:41:12.848Z,37.80
2018-02-21T02:43:06.192Z,36.60
2018-02-21T02:44:06.002Z,38.80
2018-02-21T02:45:59.384Z,38.30
2018-02-21T02:46:59.179Z,39.20
2018-02-21T02:48:52.445Z,39.00
2018-02-21T02:49:52.343Z,38.90
2018-02-21T02:51:45.703Z,39.70
2018-02-21T02:52:45.514Z,38.10
2018-02-21T02:54:38.779Z,38.50
2018-02-21T02:55:38.684Z,38.80
2018-02-21T02:57:31.931Z,40.10
2018-02-21T02:58:31.860Z,39.50
2018-02-21T03:00:25.111Z,39.70
2018-02-21T03:01:25.019Z,38.80
2018-02-21T03:03:18.378Z,38.90
2018-02-21T03:04:18.190Z,37.30
2018-02-21T03:06:11.461Z,38.90
2018-02-21T03:07:11.362Z,38.60
2018-02-21T03:09:04.626Z,38.90
2018-02-21T03:10:04.532Z,38.50
2018-02-21T03:11:57.778Z,38.00
2018-02-21T03:12:57.704Z,38.10
2018-02-21T03:14:50.966Z,39.00
2018-02-21T03:15:50.871Z,38.80
2018-02-21T03:17:44.119Z,39.30
2018-02-21T03:18:44.043Z,38.50
2018-02-21T03:20:37.297Z,37.80
2018-02-21T03:21:37.202Z,37.90
2018-02-21T03:23:30.451Z,38.20
2018-02-21T03:24:30.372Z,38.00
2018-02-21T03:26:23.640Z,39.30
2018-02-21T03:27:23.546Z,38.50
2018-02-21T03:29:16.928Z,37.70
2018-02-21T03:30:16.718Z,39.20
2018-02-21T03:32:10.079Z,37.70
2018-02-21T03:33:09.886Z,38.40
2018-02-21T03:35:03.152Z,37.40
2018-02-21T03:36:03.056Z,38.60
2018-02-21T03:37:56.400Z,38.00
2018-02-21T03:38:56.327Z,39.00
2018-02-21T03:40:49.707Z,38.10
2018-02-21T03:41:49.496Z,36.90
2018-02-21T03:43:42.857Z,38.50
2018-02-21T03:44:42.668Z,37.90
2018-02-21T03:46:35.929Z,36.90
2018-02-21T03:47:35.839Z,36.60
2018-02-21T03:49:29.105Z,37.00
2018-02-21T03:50:29.011Z,36.30
2018-02-21T03:52:22.370Z,38.60
2018-02-21T03:53:22.185Z,37.80
2018-02-21T03:55:15.560Z,35.60
2018-02-21T03:56:15.350Z,37.90
2018-02-21T03:58:08.596Z,37.30
2018-02-21T03:59:08.522Z,36.50
2018-02-21T04:01:01.900Z,36.10
2018-02-21T04:02:01.693Z,36.40
2018-02-21T04:03:54.946Z,36.90
2018-02-21T04:04:54.865Z,35.90
2018-02-21T04:06:48.130Z,36.30
2018-02-21T04:07:48.038Z,36.30
2018-02-21T04:09:41.317Z,36.90
2018-02-21T04:10:41.222Z,35.50
2018-02-21T04:12:34.465Z,36.00
2018-02-21T04:13:34.392Z,35.40
2018-02-21T04:15:27.659Z,36.20
2018-02-21T04:16:27.568Z,35.70
2018-02-21T04:18:20.923Z,36.40
2018-02-21T04:19:20.734Z,36.50
2018-02-21T04:21:14.114Z,36.10
2018-02-21T04:22:13.907Z,36.70
2018-02-21T04:24:07.154Z,36.20
2018-02-21T04:25:07.077Z,35.80
2018-02-21T04:27:00.426Z,37.10
2018-02-21T04:28:00.329Z,36.20
2018-02-21T04:29:53.586Z,36.40
2018-02-21T04:30:53.491Z,36.80
2018-02-21T04:32:46.850Z,35.80
2018-02-21T04:33:46.662Z,35.90
2018-02-21T04:35:39.931Z,35.90
2018-02-21T04:36:39.834Z,35.00
2018-02-21T04:38:33.087Z,35.10
2018-02-21T04:39:33.002Z,35.60
2018-02-21T04:41:26.266Z,35.50
2018-02-21T04:42:26.172Z,34.60
2018-02-21T04:44:19.534Z,34.50
2018-02-21T04:45:19.344Z,35.00
2018-02-21T04:47:12.721Z,34.30
2018-02-21T04:48:12.513Z,35.10
2018-02-21T04:50:05.773Z,34.70
2018-02-21T04:51:05.678Z,34.80
2018-02-21T04:52:58.925Z,35.70
2018-02-21T04:53:58.848Z,34.90
2018-02-21T04:55:52.112Z,35.30
2018-02-21T04:56:52.021Z,36.10
2018-02-21T04:58:45.375Z,33.50
2018-02-21T04:59:45.189Z,35.60
2018-02-21T05:01:38.452Z,34.90
2018-02-21T05:02:38.357Z,34.50
2018-02-21T05:04:31.719Z,36.00
2018-02-21T05:05:31.527Z,35.90
2018-02-21T05:07:24.793Z,34.10
2018-02-21T05:08:24.698Z,35.70
2018-02-21T05:10:17.956Z,35.50
2018-02-21T05:11:17.860Z,34.50
2018-02-21T05:13:11.106Z,34.30
2018-02-21T05:14:11.028Z,33.80
2018-02-21T05:16:04.407Z,35.70
2018-02-21T05:17:04.201Z,34.60
2018-02-21T05:18:57.454Z,36.00
2018-02-21T05:19:57.372Z,34.30
2018-02-21T05:21:50.640Z,34.60
2018-02-21T05:22:50.545Z,33.10
2018-02-21T05:24:43.788Z,34.70
2018-02-21T05:25:43.714Z,34.80
2018-02-21T05:27:36.978Z,35.70
2018-02-21T05:28:36.882Z,34.20
2018-02-21T05:30:30.255Z,34.00
2018-02-21T05:31:30.049Z,35.50
2018-02-21T05:33:23.404Z,33.40
2018-02-21T05:34:23.328Z,35.50
2018-02-21T05:36:16.593Z,34.00
2018-02-21T05:37:16.521Z,34.40
2018-02-21T05:39:09.855Z,34.10
2018-02-21T05:40:09.650Z,34.40
2018-02-21T05:42:02.910Z,33.50
2018-02-21T05:43:02.814Z,35.30
2018-02-21T05:44:56.061Z,32.80
2018-02-21T05:45:56.023Z,34.80
2018-02-21T05:47:49.283Z,34.30
2018-02-21T05:48:49.188Z,35.30
2018-02-21T05:50:42.441Z,35.10
2018-02-21T05:51:42.345Z,35.20
2018-02-21T05:53:36.581Z,34.70
2018-02-21T05:54:36.504Z,33.90
2018-02-21T05:56:29.885Z,35.00
2018-02-21T05:57:29.661Z,36.40
2018-02-21T05:59:22.898Z,34.20
2018-02-21T06:00:22.821Z,34.70
2018-02-21T06:02:16.076Z,33.00
2018-02-21T06:03:15.978Z,34.10
2018-02-21T06:05:09.272Z,34.70
2018-02-21T06:06:09.168Z,35.10
2018-02-21T06:08:02.373Z,34.70
2018-02-21T06:09:02.295Z,35.30
2018-02-21T06:10:55.551Z,34.30
2018-02-21T06:11:55.457Z,34.90
2018-02-21T06:13:48.694Z,33.70
2018-02-21T06:14:48.616Z,35.30
2018-02-21T06:16:41.867Z,33.80
2018-02-21T06:17:41.772Z,34.20
2018-02-21T06:19:35.132Z,35.20
2018-02-21T06:20:34.930Z,35.60
2018-02-21T06:22:28.184Z,36.00
2018-02-21T06:23:28.090Z,34.90
2018-02-21T06:25:21.434Z,36.30
2018-02-21T06:26:21.336Z,35.20
2018-02-21T06:28:14.578Z,35.10
2018-02-21T06:29:14.495Z,34.60
2018-02-21T06:31:07.750Z,33.80
2018-02-21T06:32:07.697Z,34.10
2018-02-21T06:34:00.887Z,35.70
2018-02-21T06:35:00.811Z,34.50
2018-02-21T06:36:55.063Z,34.10
2018-02-21T06:37:55.020Z,35.40
2018-02-21T06:39:48.203Z,35.10
2018-02-21T06:40:48.126Z,34.00
2018-02-21T06:42:41.431Z,35.50
2018-02-21T06:43:41.331Z,34.90
2018-02-21T06:45:34.710Z,33.40
2018-02-21T06:46:34.500Z,34.50
2018-02-21T06:48:27.736Z,34.10
2018-02-21T06:49:27.661Z,34.20
2018-02-21T06:51:21.039Z,35.00
2018-02-21T06:52:20.833Z,35.00
2018-02-21T06:54:14.062Z,33.50
2018-02-21T06:55:13.985Z,34.20
2018-02-21T06:57:07.255Z,33.30
2018-02-21T06:58:07.150Z,34.40
2018-02-21T07:00:01.410Z,34.50
2018-02-21T07:01:01.331Z,33.30
2018-02-21T07:02:54.586Z,33.90
2018-02-21T07:03:54.489Z,33.90
2018-02-21T07:05:47.740Z,33.00
2018-02-21T07:06:47.647Z,34.30
2018-02-21T07:08:40.883Z,34.10
2018-02-21T07:09:40.803Z,34.40
2018-02-21T07:11:34.069Z,32.50
2018-02-21T07:12:33.972Z,33.00
2018-02-21T07:14:27.209Z,33.90
2018-02-21T07:15:27.176Z,33.90
2018-02-21T07:17:20.385Z,32.50
2018-02-21T07:18:20.291Z,32.20
2018-02-21T07:20:14.526Z,32.70
2018-02-21T07:21:14.448Z,33.00
2018-02-21T07:23:07.701Z,33.50
2018-02-21T07:24:07.611Z,32.60
2018-02-21T07:26:00.989Z,33.40
2018-02-21T07:27:00.773Z,33.30
2018-02-21T07:28:54.011Z,32.20
2018-02-21T07:29:53.940Z,32.90
2018-02-21T07:31:47.190Z,31.00
2018-02-21T07:32:47.093Z,32.50
2018-02-21T07:34:41.403Z,33.00
2018-02-21T07:35:41.328Z,33.40
2018-02-21T07:37:34.586Z,31.90
2018-02-21T07:38:34.487Z,32.50
2018-02-21T07:40:27.721Z,32.60
2018-02-21T07:41:27.645Z,31.10
2018-02-21T07:43:20.917Z,30.40
2018-02-21T07:44:20.823Z,32.10
2018-02-21T07:46:13.701Z,30.80
2018-02-21T07:47:13.505Z,31.90
2018-02-21T07:49:07.741Z,30.40
2018-02-21T07:50:07.662Z,31.80
2018-02-21T07:52:00.924Z,29.80
2018-02-21T07:53:00.826Z,32.10
2018-02-21T07:54:54.062Z,30.60
2018-02-21T07:55:54.059Z,31.30
2018-02-21T07:57:47.240Z,31.20
2018-02-21T07:58:47.220Z,31.80
2018-02-21T08:00:40.384Z,29.70
2018-02-21T08:01:40.327Z,29.50
2018-02-21T08:03:34.583Z,29.90
2018-02-21T08:04:34.482Z,29.80
2018-02-21T08:06:28.857Z,30.10
2018-02-21T08:07:28.649Z,30.10
2018-02-21T08:09:21.892Z,30.00
2018-02-21T08:10:21.818Z,29.80
2018-02-21T08:12:15.088Z,30.10
2018-02-21T08:13:15.020Z,30.40
2018-02-21T08:15:08.225Z,28.10
2018-02-21T08:16:08.157Z,29.20
2018-02-21T08:18:01.427Z,28.00
2018-02-21T08:19:01.332Z,27.80
2018-02-21T08:20:54.580Z,28.60
2018-02-21T08:21:54.536Z,28.10
2018-02-21T08:23:47.886Z,28.10
2018-02-21T08:24:47.674Z,27.80
2018-02-21T08:26:41.068Z,28.60
2018-02-21T08:27:40.841Z,28.00
2018-02-21T08:29:34.082Z,26.50
2018-02-21T08:30:34.010Z,27.00
2018-02-21T08:32:27.263Z,28.10
2018-02-21T08:33:27.168Z,28.00
2018-02-21T08:35:20.435Z,27.70
2018-02-21T08:36:20.360Z,27.90
2018-02-21T08:38:13.617Z,26.80
2018-02-21T08:39:13.519Z,27.40
2018-02-21T08:41:06.776Z,28.20
2018-02-21T08:42:06.700Z,27.30
2018-02-21T08:43:59.958Z,28.30
2018-02-21T08:44:59.863Z,27.30
2018-02-21T08:46:53.134Z,27.00
2018-02-21T08:47:53.042Z,26.10
2018-02-21T08:49:46.274Z,25.70
2018-02-21T08:50:46.201Z,26.30
2018-02-21T08:52:39.470Z,25.90
2018-02-21T08:53:39.379Z,26.90
2018-02-21T08:55:32.619Z,26.20
2018-02-21T08:56:32.545Z,27.50
2018-02-21T08:58:25.928Z,25.80
2018-02-21T08:59:25.718Z,24.30
2018-02-21T09:01:18.982Z,24.70
2018-02-21T09:02:18.909Z,24.50
2018-02-21T09:04:12.172Z,24.70
2018-02-21T09:05:12.079Z,24.50
2018-02-21T09:07:05.431Z,24.70
2018-02-21T09:08:05.334Z,26.90
2018-02-21T09:09:58.578Z,25.60
2018-02-21T09:10:58.545Z,26.10
2018-02-21T09:12:51.891Z,25.90
2018-02-21T09:13:51.711Z,26.10
2018-02-21T09:15:44.950Z,25.50
2018-02-21T09:16:44.875Z,26.60
2018-02-21T09:18:38.144Z,25.80
2018-02-21T09:19:38.045Z,26.30
2018-02-21T09:21:31.460Z,25.20
2018-02-21T09:22:31.338Z,25.10
2018-02-21T09:24:24.614Z,24.90
2018-02-21T09:25:24.523Z,25.00
2018-02-21T09:27:17.940Z,24.90
2018-02-21T09:28:17.704Z,25.40
2018-02-21T09:30:10.951Z,25.70
2018-02-21T09:31:10.884Z,25.40
2018-02-21T09:33:04.147Z,26.20
2018-02-21T09:34:04.061Z,25.40
2018-02-21T09:35:57.314Z,25.00
2018-02-21T09:36:57.283Z,25.40
2018-02-21T09:38:50.628Z,25.60
2018-02-21T09:39:50.416Z,25.00
2018-02-21T09:41:43.674Z,25.10
2018-02-21T09:42:43.616Z,23.30
2018-02-21T09:44:36.874Z,23.80
2018-02-21T09:45:36.782Z,24.40
2018-02-21T09:47:30.072Z,23.90
2018-02-21T09:48:29.961Z,24.60
2018-02-21T09:50:23.330Z,23.60
2018-02-21T09:51:23.150Z,23.80
2018-02-21T09:53:16.422Z,22.10
2018-02-21T09:54:16.334Z,24.30
2018-02-21T09:56:09.700Z,23.90
2018-02-21T09:57:09.529Z,23.20
2018-02-21T09:59:02.786Z,23.50
2018-02-21T10:00:02.696Z,24.20
2018-02-21T10:01:56.065Z,24.90
2018-02-21T10:02:55.877Z,23.10
2018-02-21T10:04:49.246Z,22.00
2018-02-21T10:05:49.056Z,22.80
2018-02-21T10:07:42.321Z,22.90
2018-02-21T10:08:42.237Z,23.80
2018-02-21T10:10:35.490Z,23.00
2018-02-21T10:11:35.422Z,23.00
2018-02-21T10:13:28.688Z,22.80
2018-02-21T10:14:28.600Z,22.70
2018-02-21T10:16:21.849Z,22.80
2018-02-21T10:17:21.777Z,22.80
2018-02-21T10:19:15.171Z,20.90
2018-02-21T10:20:14.962Z,21.50
2018-02-21T10:22:08.215Z,22.10
2018-02-21T10:23:08.139Z,22.30
2018-02-21T10:25:01.427Z,21.30
2018-02-21T10:26:01.340Z,22.30
2018-02-21T10:27:54.609Z,23.40
2018-02-21T10:28:54.519Z,22.60
2018-02-21T10:30:47.771Z,22.70
2018-02-21T10:31:47.701Z,22.60
2018-02-21T10:33:40.971Z,22.40
2018-02-21T10:34:40.883Z,21.50
2018-02-21T10:36:34.133Z,23.50
2018-02-21T10:37:34.061Z,23.30
2018-02-21T10:39:27.429Z,23.70
2018-02-21T10:40:27.344Z,22.40
2018-02-21T10:42:20.602Z,23.50
2018-02-21T10:43:20.534Z,22.90
2018-02-21T10:45:13.805Z,22.60
2018-02-21T10:46:13.722Z,22.50
2018-02-21T10:48:06.989Z,22.10
2018-02-21T10:49:06.902Z,23.10
2018-02-21T10:51:00.271Z,23.10
2018-02-21T10:52:00.096Z,23.00
2018-02-21T10:53:53.434Z,21.50
2018-02-21T10:54:53.342Z,22.60
2018-02-21T10:56:46.602Z,21.90
2018-02-21T10:57:46.523Z,21.20
2018-02-21T10:59:39.800Z,21.20
2018-02-21T11:00:39.704Z,20.90
2018-02-21T11:02:32.956Z,22.00
2018-02-21T11:03:32.887Z,20.40
2018-02-21T11:05:26.155Z,21.10
2018-02-21T11:06:26.067Z,21.80
2018-02-21T11:08:20.186Z,21.20
2018-02-21T11:09:20.098Z,21.60
2018-02-21T11:11:13.407Z,21.50
2018-02-21T11:12:13.343Z,21.30
2018-02-21T11:14:06.610Z,17.20
2018-02-21T11:15:06.523Z,18.70
2018-02-21T11:16:59.772Z,19.20
2018-02-21T11:17:59.760Z,19.00
2018-02-21T11:19:53.089Z,18.30
2018-02-21T11:20:52.889Z,18.30
2018-02-21T11:22:46.150Z,19.10
2018-02-21T11:23:46.127Z,19.10
2018-02-21T11:25:39.471Z,19.50
2018-02-21T11:26:39.345Z,21.00
2018-02-21T11:28:32.608Z,19.70
2018-02-21T11:29:32.566Z,19.50
2018-02-21T11:31:25.887Z,18.60
2018-02-21T11:32:25.695Z,17.10
2018-02-21T11:34:18.963Z,17.30
2018-02-21T11:35:18.870Z,14.80
2018-02-21T11:37:12.125Z,18.40
2018-02-21T11:38:12.048Z,17.60
2018-02-21T11:40:05.453Z,17.70
2018-02-21T11:41:05.339Z,18.30
2018-02-21T11:42:58.677Z,17.70
2018-02-21T11:43:58.602Z,18.10
2018-02-21T11:45:51.877Z,16.50
2018-02-21T11:46:51.777Z,16.50
2018-02-21T11:48:45.051Z,17.60
2018-02-21T11:49:44.960Z,16.70
2018-02-21T11:51:39.211Z,18.00
2018-02-21T11:52:39.133Z,17.20
2018-02-21T11:54:32.396Z,17.00
2018-02-21T11:55:32.304Z,18.80
2018-02-21T11:57:25.668Z,16.40
2018-02-21T11:58:25.477Z,16.50
2018-02-21T12:00:18.860Z,17.10
2018-02-21T12:01:18.649Z,15.20
2018-02-21T12:03:11.893Z,17.20
2018-02-21T12:04:11.822Z,17.10
2018-02-21T12:06:05.204Z,17.00
2018-02-21T12:07:05.012Z,15.80
2018-02-21T12:08:58.294Z,16.60
2018-02-21T12:09:58.203Z,15.90
2018-02-21T12:11:51.447Z,17.30
2018-02-21T12:12:51.377Z,18.10
2018-02-21T12:14:44.640Z,17.20
2018-02-21T12:15:44.547Z,17.50
2018-02-21T12:17:37.794Z,16.00
2018-02-21T12:18:37.717Z,16.40
2018-02-21T12:20:31.103Z,17.30
2018-02-21T12:21:30.892Z,17.10
2018-02-21T12:23:24.138Z,16.30
2018-02-21T12:24:24.069Z,16.80
2018-02-21T12:26:17.429Z,17.40
2018-02-21T12:27:17.338Z,16.90
2018-02-21T12:29:10.603Z,17.00
2018-02-21T12:30:10.508Z,16.60
2018-02-21T12:32:03.752Z,17.80
2018-02-21T12:33:03.679Z,17.20
2018-02-21T12:34:56.954Z,17.90
2018-02-21T12:35:56.850Z,17.50
2018-02-21T12:37:50.096Z,17.20
2018-02-21T12:38:50.026Z,17.20
2018-02-21T12:40:43.347Z,17.30
2018-02-21T12:41:43.201Z,16.60
2018-02-21T12:43:36.445Z,17.30
2018-02-21T12:44:36.371Z,17.20
2018-02-21T12:46:29.633Z,17.60
2018-02-21T12:47:29.544Z,17.00
2018-02-21T12:49:22.821Z,17.40
2018-02-21T12:50:22.730Z,17.20
2018-02-21T12:52:15.974Z,17.00
2018-02-21T12:53:15.953Z,17.50
2018-02-21T12:55:09.166Z,18.10
2018-02-21T12:56:09.075Z,17.90
2018-02-21T12:58:02.320Z,17.60
2018-02-21T12:59:02.244Z,17.60
2018-02-21T13:00:55.634Z,17.20
2018-02-21T13:01:55.418Z,17.40
2018-02-21T13:03:49.664Z,17.30
2018-02-21T13:04:49.591Z,16.20
2018-02-21T13:06:43.976Z,16.40
2018-02-21T13:07:43.764Z,17.00
2018-02-21T13:09:38.033Z,15.80
2018-02-21T13:10:37.939Z,15.40
2018-02-21T13:12:31.303Z,15.90
2018-02-21T13:13:31.112Z,15.90
2018-02-21T13:15:24.374Z,15.80
2018-02-21T13:16:24.280Z,16.00
2018-02-21T13:18:17.534Z,16.40
2018-02-21T13:19:17.460Z,16.20
2018-02-21T13:21:10.743Z,15.30
2018-02-21T13:22:10.629Z,16.20
2018-02-21T13:24:03.874Z,16.30
2018-02-21T13:25:03.800Z,16.50
2018-02-21T13:26:57.182Z,17.10
2018-02-21T13:27:56.973Z,16.30
2018-02-21T13:29:50.357Z,17.60
2018-02-21T13:30:50.145Z,17.90
2018-02-21T13:32:44.390Z,16.70
2018-02-21T13:33:44.318Z,16.80
2018-02-21T13:35:37.578Z,16.80
2018-02-21T13:36:37.484Z,16.00
2018-02-21T13:38:30.729Z,17.00
2018-02-21T13:39:30.659Z,17.10
2018-02-21T13:41:24.044Z,16.40
2018-02-21T13:42:23.829Z,15.80
2018-02-21T13:44:17.075Z,17.60
2018-02-21T13:45:16.995Z,16.60
2018-02-21T13:47:10.266Z,17.00
2018-02-21T13:48:10.174Z,16.30
2018-02-21T13:50:03.433Z,16.10
2018-02-21T13:51:03.348Z,16.60
2018-02-21T13:52:56.586Z,17.10
2018-02-21T13:53:56.513Z,17.50
2018-02-21T13:55:49.789Z,16.70
2018-02-21T13:56:49.700Z,16.80
2018-02-21T13:58:42.944Z,16.70
2018-02-21T13:59:42.860Z,17.40
2018-02-21T14:01:36.251Z,17.30
2018-02-21T14:02:36.037Z,16.20
2018-02-21T14:04:29.412Z,17.10
2018-02-21T14:05:29.338Z,16.50
2018-02-21T14:07:22.600Z,16.40
2018-02-21T14:08:22.508Z,16.90
2018-02-21T14:10:15.915Z,16.60
2018-02-21T14:11:15.679Z,16.60
2018-02-21T14:13:08.923Z,17.50
2018-02-21T14:14:08.850Z,15.90
2018-02-21T14:16:02.112Z,15.90
2018-02-21T14:17:02.020Z,14.90
2018-02-21T14:18:55.385Z,16.80
2018-02-21T14:19:55.190Z,16.80
2018-02-21T14:21:48.455Z,15.80
2018-02-21T14:22:48.361Z,16.70
2018-02-21T14:24:41.604Z,16.10
2018-02-21T14:25:41.531Z,16.40
2018-02-21T14:27:34.796Z,16.60
2018-02-21T14:28:34.706Z,14.40
2018-02-21T14:30:27.966Z,15.30
2018-02-21T14:31:27.877Z,15.40
2018-02-21T14:33:21.120Z,14.60
2018-02-21T14:34:21.051Z,14.80
2018-02-21T14:36:14.431Z,14.80
2018-02-21T14:37:14.218Z,14.00
2018-02-21T14:39:07.470Z,13.90
2018-02-21T14:40:07.383Z,14.90
2018-02-21T14:42:00.771Z,15.30
2018-02-21T14:43:00.555Z,14.20
2018-02-21T14:44:53.798Z,14.40
2018-02-21T14:45:53.726Z,14.60
2018-02-21T14:47:47.112Z,14.00
2018-02-21T14:48:46.898Z,14.40
2018-02-21T14:50:40.164Z,15.20
2018-02-21T14:51:40.069Z,15.10
2018-02-21T14:53:33.432Z,14.30
2018-02-21T14:54:33.335Z,13.80
2018-02-21T14:56:26.601Z,15.40
2018-02-21T14:57:26.508Z,15.10
2018-02-21T14:59:19.749Z,14.90
2018-02-21T15:00:19.675Z,15.60
2018-02-21T15:02:12.940Z,15.60
2018-02-21T15:03:12.851Z,15.00
2018-02-21T15:05:06.210Z,14.60
2018-02-21T15:06:06.016Z,15.30
2018-02-21T15:07:59.278Z,15.00
2018-02-21T15:08:59.185Z,15.00
2018-02-21T15:10:52.571Z,14.90
2018-02-21T15:11:52.359Z,15.10
2018-02-21T15:13:45.601Z,14.50
2018-02-21T15:14:45.598Z,15.30
2018-02-21T15:16:38.787Z,15.30
2018-02-21T15:17:38.690Z,16.00
2018-02-21T15:19:31.952Z,15.20
2018-02-21T15:20:31.878Z,15.10
2018-02-21T15:22:25.137Z,14.70
2018-02-21T15:23:25.055Z,15.00
2018-02-21T15:25:18.290Z,16.00
2018-02-21T15:26:18.214Z,15.40
2018-02-21T15:28:11.479Z,14.70
2018-02-21T15:29:11.386Z,15.10
2018-02-21T15:31:04.767Z,15.00
2018-02-21T15:32:04.553Z,14.80
2018-02-21T15:33:57.796Z,16.00
2018-02-21T15:34:57.720Z,16.10
2018-02-21T15:36:50.982Z,15.60
2018-02-21T15:37:50.890Z,15.80
2018-02-21T15:39:44.132Z,16.10
2018-02-21T15:40:44.059Z,15.60
2018-02-21T15:42:37.434Z,15.50
2018-02-21T15:43:37.342Z,15.30
2018-02-21T15:45:30.582Z,14.80
2018-02-21T15:46:30.508Z,15.10
2018-02-21T15:48:23.769Z,16.60
2018-02-21T15:49:23.674Z,16.00
2018-02-21T15:51:16.936Z,15.70
2018-02-21T15:52:16.914Z,15.70
2018-02-21T15:54:10.086Z,15.40
2018-02-21T15:55:10.018Z,15.00
2018-02-21T15:57:03.396Z,14.20
2018-02-21T15:58:03.179Z,15.00
2018-02-21T15:59:56.423Z,16.10
2018-02-21T16:00:56.350Z,16.60
2018-02-21T16:02:49.608Z,14.60
2018-02-21T16:03:49.517Z,14.50
2018-02-21T16:05:42.761Z,15.10
2018-02-21T16:06:42.682Z,15.60
2018-02-21T16:08:35.946Z,15.80
2018-02-21T16:09:35.854Z,15.60
2018-02-21T16:11:29.112Z,15.40
2018-02-21T16:12:29.021Z,16.10
2018-02-21T16:14:22.262Z,16.50
2018-02-21T16:15:22.190Z,16.70
2018-02-21T16:17:15.574Z,15.50
2018-02-21T16:18:15.358Z,16.50
2018-02-21T16:20:08.601Z,15.80
2018-02-21T16:21:08.525Z,16.40
2018-02-21T16:23:01.793Z,16.30
2018-02-21T16:24:01.701Z,15.20
2018-02-21T16:25:54.942Z,16.10
2018-02-21T16:26:54.869Z,16.00
2018-02-21T16:28:48.133Z,15.60
2018-02-21T16:29:48.041Z,15.60
2018-02-21T16:31:41.428Z,16.30
2018-02-21T16:32:41.340Z,15.60
2018-02-21T16:34:34.574Z,16.30
2018-02-21T16:35:34.500Z,16.30
2018-02-21T16:37:27.761Z,15.00
2018-02-21T16:38:27.666Z,15.60
2018-02-21T16:40:20.909Z,16.20
2018-02-21T16:41:20.838Z,15.30
2018-02-21T16:43:14.097Z,15.50
2018-02-21T16:44:14.004Z,15.60
2018-02-21T16:46:07.246Z,15.10
2018-02-21T16:47:07.174Z,15.30
2018-02-21T16:49:00.433Z,15.40
2018-02-21T16:50:00.338Z,15.70
2018-02-21T16:51:53.598Z,16.20
2018-02-21T16:52:53.505Z,15.10
2018-02-21T16:54:46.777Z,14.40
2018-02-21T16:55:46.702Z,14.90
2018-02-21T16:57:39.959Z,15.40
2018-02-21T16:58:39.865Z,15.80
2018-02-21T17:00:33.109Z,14.90
2018-02-21T17:01:33.036Z,15.10
2018-02-21T17:03:26.297Z,15.40
2018-02-21T17:04:26.202Z,13.90
2018-02-21T17:06:19.445Z,14.10
2018-02-21T17:07:19.370Z,14.00
2018-02-21T17:09:12.626Z,14.30
2018-02-21T17:10:12.534Z,14.90
2018-02-21T17:12:05.863Z,14.90
2018-02-21T17:13:05.716Z,14.60
2018-02-21T17:14:58.952Z,14.70
2018-02-21T17:15:58.877Z,14.30
2018-02-21T17:17:52.181Z,14.40
2018-02-21T17:18:52.042Z,14.20
2018-02-21T17:20:45.469Z,15.90
2018-02-21T17:21:45.353Z,15.30
2018-02-21T17:23:38.614Z,16.30
2018-02-21T17:24:38.518Z,16.00
2018-02-21T17:26:31.758Z,16.40
2018-02-21T17:27:31.682Z,15.60
2018-02-21T17:29:24.945Z,15.70
2018-02-21T17:30:24.883Z,16.10
2018-02-21T17:32:18.110Z,16.50
2018-02-21T17:33:18.014Z,16.90
2018-02-21T17:35:11.375Z,16.40
2018-02-21T17:36:11.178Z,16.50
2018-02-21T17:38:04.442Z,16.30
2018-02-21T17:39:04.347Z,16.50
2018-02-21T17:40:57.707Z,15.90
2018-02-21T17:41:57.514Z,16.40
2018-02-21T17:43:50.767Z,16.90
2018-02-21T17:44:50.680Z,17.30
2018-02-21T17:46:44.076Z,17.50
2018-02-21T17:47:43.845Z,16.20
2018-02-21T17:49:37.091Z,16.80
2018-02-21T17:50:37.019Z,16.40
2018-02-21T17:52:30.288Z,16.30
2018-02-21T17:53:30.193Z,16.50
2018-02-21T17:55:23.444Z,16.50
2018-02-21T17:56:23.369Z,16.30
2018-02-21T17:58:16.638Z,16.10
2018-02-21T17:59:16.545Z,16.20
2018-02-21T18:01:09.796Z,15.70
2018-02-21T18:02:09.722Z,16.60
2018-02-21T18:04:02.993Z,16.30
2018-02-21T18:05:02.900Z,16.50
2018-02-21T18:06:56.263Z,16.30
2018-02-21T18:07:56.070Z,17.00
2018-02-21T18:09:49.433Z,16.20
2018-02-21T18:10:49.340Z,16.30
2018-02-21T18:12:42.597Z,17.10
2018-02-21T18:13:42.503Z,16.80
2018-02-21T18:15:35.742Z,16.20
2018-02-21T18:16:35.665Z,15.80
2018-02-21T18:18:28.928Z,16.40
2018-02-21T18:19:28.829Z,16.70
2018-02-21T18:21:22.068Z,16.60
2018-02-21T18:22:21.989Z,16.30
2018-02-21T18:24:15.250Z,17.10
2018-02-21T18:25:15.157Z,16.80
2018-02-21T18:27:08.540Z,15.80
2018-02-21T18:28:08.321Z,16.00
2018-02-21T18:30:01.575Z,16.20
2018-02-21T18:31:01.501Z,16.20
2018-02-21T18:32:54.803Z,16.20
2018-02-21T18:33:54.664Z,16.70
2018-02-21T18:35:47.902Z,17.50